createdAt,value
2023-04-27T00:00:56.705Z,1.90
2023-04-27T00:03:25.434Z,2.10
2023-04-27T00:05:54.449Z,1.70
2023-04-27T00:08:23.735Z,1.80
2023-04-27T00:10:52.723Z,2.10
2023-04-27T00:13:20.923Z,2.10
2023-04-27T00:15:49.176Z,2.20
2023-04-27T00:18:18.982Z,2.20
2023-04-27T00:20:47.360Z,2.20
2023-04-27T00:23:15.442Z,2.00
2023-04-27T00:25:43.709Z,2.30
2023-04-27T00:28:12.094Z,1.90
2023-04-27T00:30:40.672Z,2.30
2023-04-27T00:33:08.982Z,1.70
2023-04-27T00:35:38.362Z,1.80
2023-04-27T00:38:07.031Z,1.70
2023-04-27T00:40:35.252Z,2.10
2023-04-27T00:43:04.176Z,1.90
2023-04-27T00:45:32.842Z,2.40
2023-04-27T00:48:06.862Z,1.80
2023-04-27T00:50:40.866Z,1.60
2023-04-27T00:53:08.837Z,2.00
2023-04-27T00:55:37.148Z,1.80
2023-04-27T00:58:05.342Z,1.80
2023-04-27T01:00:35.250Z,2.20
2023-04-27T01:03:04.939Z,2.20
2023-04-27T01:05:33.630Z,2.30
2023-04-27T01:08:02.010Z,2.00
2023-04-27T01:10:30.298Z,1.90
2023-04-27T01:12:59.274Z,1.90
2023-04-27T01:15:27.765Z,2.30
2023-04-27T01:18:02.589Z,2.00
2023-04-27T01:20:33.740Z,1.90
2023-04-27T01:23:04.974Z,1.90
2023-04-27T01:25:33.554Z,2.30
2023-04-27T01:32:50.289Z,2.40
2023-04-27T01:35:21.136Z,2.10
2023-04-27T01:37:49.503Z,1.80
2023-04-27T01:40:20.137Z,2.20
2023-04-27T01:42:51.783Z,2.00
2023-04-27T01:45:20.451Z,2.00
2023-04-27T01:47:53.623Z,1.80
2023-04-27T01:50:35.975Z,2.40
2023-04-27T01:53:04.246Z,1.80
2023-04-27T01:55:34.268Z,2.20
2023-04-27T01:58:03.546Z,2.20
2023-04-27T02:00:32.460Z,1.90
2023-04-27T02:03:01.635Z,1.70
2023-04-27T02:05:30.127Z,1.90
2023-04-27T02:07:58.297Z,2.20
2023-04-27T02:10:27.195Z,1.90
2023-04-27T02:12:58.743Z,1.70
2023-04-27T02:15:30.612Z,1.80
2023-04-27T02:17:59.250Z,1.70
2023-04-27T02:20:31.174Z,1.90
2023-04-27T02:31:49.484Z,1.70
2023-04-27T02:34:18.234Z,1.80
2023-04-27T02:36:47.636Z,1.70
2023-04-27T02:39:16.389Z,1.80
2023-04-27T02:41:44.698Z,2.80
2023-04-27T02:44:12.879Z,1.90
2023-04-27T02:46:41.087Z,1.80
2023-04-27T02:49:09.222Z,2.10
2023-04-27T02:51:37.394Z,1.80
2023-04-27T02:54:07.715Z,2.10
2023-04-27T02:56:36.263Z,1.50
2023-04-27T02:59:04.573Z,1.90
2023-04-27T03:01:32.795Z,2.10
2023-04-27T03:04:01.464Z,2.20
2023-04-27T03:06:31.444Z,2.70
2023-04-27T03:09:00.186Z,2.20
2023-04-27T03:11:29.632Z,2.20
2023-04-27T03:13:59.909Z,2.60
2023-04-27T03:16:49.399Z,2.40
2023-04-27T03:19:17.727Z,2.30
2023-04-27T03:21:45.893Z,2.00
2023-04-27T03:24:14.373Z,1.90
2023-04-27T03:26:44.683Z,1.80
2023-04-27T03:29:13.270Z,2.00
2023-04-27T03:31:41.546Z,1.80
2023-04-27T03:35:06.570Z,1.90
2023-04-27T03:37:34.735Z,1.80
2023-04-27T03:40:23.207Z,2.00
2023-04-27T03:42:51.755Z,2.00
2023-04-27T03:45:23.161Z,1.70
2023-04-27T03:47:51.790Z,1.80
2023-04-27T03:50:21.796Z,1.40
2023-04-27T03:52:50.606Z,1.60
2023-04-27T03:55:19.914Z,1.60
2023-04-27T03:57:48.178Z,1.70
2023-04-27T04:00:20.129Z,1.50
2023-04-27T04:02:50.790Z,1.50
2023-04-27T04:05:19.881Z,2.40
2023-04-27T04:07:48.232Z,1.50
2023-04-27T04:10:16.811Z,1.70
2023-04-27T04:15:13.821Z,1.30
2023-04-27T04:17:42.485Z,1.40
2023-04-27T04:20:11.976Z,1.50
2023-04-27T04:22:40.280Z,1.20
2023-04-27T04:25:08.729Z,1.10
2023-04-27T04:27:38.325Z,1.30
2023-04-27T04:30:07.313Z,1.30
2023-04-27T04:32:38.258Z,1.20
2023-04-27T04:35:08.676Z,1.30
2023-04-27T04:37:38.812Z,1.30
2023-04-27T04:40:11.040Z,1.20
2023-04-27T04:43:07.912Z,1.50
2023-04-27T04:45:39.052Z,1.10
2023-04-27T04:48:07.244Z,1.20
2023-04-27T04:50:40.309Z,1.20
2023-04-27T05:05:43.589Z,0.90
2023-04-27T05:08:10.686Z,1.10
2023-04-27T05:10:37.501Z,0.90
2023-04-27T05:13:05.959Z,1.00
2023-04-27T05:15:34.438Z,1.40
2023-04-27T05:18:28.311Z,1.70
2023-04-27T05:20:55.669Z,1.50
2023-04-27T05:23:23.743Z,1.40
2023-04-27T05:25:52.323Z,1.40
2023-04-27T05:28:19.531Z,1.70
2023-04-27T05:30:46.233Z,2.00
2023-04-27T05:33:13.109Z,1.90
2023-04-27T05:35:41.245Z,1.90
2023-04-27T05:38:09.492Z,2.40
2023-04-27T05:40:36.540Z,2.80
2023-04-27T05:43:05.124Z,2.50
2023-04-27T05:45:32.188Z,2.40
2023-04-27T05:47:59.142Z,2.60
2023-04-27T05:50:25.875Z,2.80
2023-04-27T05:52:52.802Z,3.00
2023-04-27T05:55:19.977Z,3.00
2023-04-27T05:57:51.698Z,2.60
2023-04-27T06:00:24.647Z,3.20
2023-04-27T06:02:51.778Z,2.70
2023-04-27T06:05:21.701Z,2.90
2023-04-27T06:07:48.600Z,3.30
2023-04-27T06:10:18.889Z,2.80
2023-04-27T06:12:46.492Z,2.50
2023-04-27T06:15:13.638Z,2.60
2023-04-27T06:17:44.025Z,3.10
2023-04-27T06:20:11.910Z,3.10
2023-04-27T06:22:38.983Z,3.10
2023-04-27T06:25:07.350Z,2.80
2023-04-27T06:27:34.804Z,3.90
2023-04-27T06:30:01.957Z,3.10
2023-04-27T06:32:28.863Z,2.80
2023-04-27T06:34:56.454Z,3.30
2023-04-27T06:37:23.247Z,2.60
2023-04-27T06:39:50.271Z,3.00
2023-04-27T06:42:17.490Z,4.00
2023-04-27T06:44:44.337Z,3.30
2023-04-27T06:47:12.206Z,3.20
2023-04-27T06:49:39.246Z,3.20
2023-04-27T06:52:06.048Z,3.10
2023-04-27T06:54:33.344Z,3.30
2023-04-27T07:01:11.167Z,3.20
2023-04-27T07:03:40.102Z,3.10
2023-04-27T07:06:09.769Z,2.80
2023-04-27T07:08:37.528Z,3.10
2023-04-27T07:11:04.476Z,2.80
2023-04-27T07:13:57.711Z,3.20
2023-04-27T07:16:24.484Z,2.50
2023-04-27T07:18:51.943Z,2.70
2023-04-27T07:21:18.645Z,2.80
2023-04-27T07:23:47.215Z,2.60
2023-04-27T07:26:14.308Z,2.60
2023-04-27T07:28:41.355Z,2.40
2023-04-27T07:31:08.703Z,3.00
2023-04-27T07:33:36.464Z,2.10
2023-04-27T07:36:04.172Z,2.50
2023-04-27T07:38:31.427Z,2.50
2023-04-27T07:40:58.530Z,1.90
2023-04-27T07:43:30.454Z,1.70
2023-04-27T07:45:58.500Z,2.00
2023-04-27T07:48:30.699Z,1.80
2023-04-27T07:50:57.867Z,1.80
2023-04-27T07:53:24.708Z,2.30
2023-04-27T07:55:51.765Z,2.10
2023-04-27T07:58:19.521Z,1.90
2023-04-27T08:00:47.900Z,2.10
2023-04-27T08:05:42.314Z,2.00
2023-04-27T08:08:13.875Z,2.00
2023-04-27T08:10:44.366Z,2.40
2023-04-27T08:13:12.497Z,2.40
2023-04-27T08:15:39.291Z,2.10
2023-04-27T08:18:07.707Z,2.30
2023-04-27T08:20:34.725Z,2.30
2023-04-27T08:23:01.404Z,2.20
2023-04-27T08:25:28.707Z,2.70
2023-04-27T08:27:55.524Z,2.00
2023-04-27T08:30:22.493Z,2.20
2023-04-27T08:32:49.345Z,2.50
2023-04-27T08:35:16.284Z,2.10
2023-04-27T08:37:43.738Z,2.50
2023-04-27T08:40:11.604Z,2.60
2023-04-27T08:42:41.348Z,2.10
2023-04-27T08:45:09.099Z,2.30
2023-04-27T08:47:43.361Z,2.10
2023-04-27T08:50:12.558Z,2.30
2023-04-27T08:52:40.086Z,3.40
2023-04-27T08:55:08.343Z,2.40
2023-04-27T08:57:35.471Z,2.60
2023-04-27T09:00:12.042Z,2.30
2023-04-27T09:02:47.256Z,2.40
2023-04-27T09:05:18.022Z,2.80
2023-04-27T09:07:57.423Z,5.30
2023-04-27T09:10:24.292Z,2.80
2023-04-27T09:13:00.880Z,2.70
2023-04-27T09:15:28.394Z,2.20
2023-04-27T09:17:56.237Z,2.40
2023-04-27T09:20:23.435Z,2.40
2023-04-27T09:22:55.291Z,2.20
2023-04-27T09:25:32.181Z,2.40
2023-04-27T09:28:00.924Z,2.00
2023-04-27T09:30:28.116Z,2.30
2023-04-27T09:33:03.241Z,2.10
2023-04-27T09:35:33.260Z,2.20
2023-04-27T09:38:00.518Z,1.80
2023-04-27T09:40:31.805Z,2.40
2023-04-27T09:43:03.016Z,2.30
2023-04-27T09:45:30.781Z,2.80
2023-04-27T09:47:58.600Z,2.80
2023-04-27T09:50:25.834Z,2.00
2023-04-27T09:52:52.938Z,2.80
2023-04-27T09:55:28.716Z,2.80
2023-04-27T09:58:10.181Z,2.50
2023-04-27T10:00:49.122Z,2.50
2023-04-27T10:03:29.310Z,2.20
2023-04-27T10:06:06.633Z,2.60
2023-04-27T10:08:35.596Z,2.40
2023-04-27T10:11:15.170Z,2.50
2023-04-27T10:13:54.424Z,2.60
2023-04-27T10:16:23.301Z,2.70
2023-04-27T10:18:59.859Z,6.70
2023-04-27T10:21:27.321Z,4.80
2023-04-27T10:23:54.394Z,3.10
2023-04-27T10:26:26.330Z,2.80
2023-04-27T10:29:07.155Z,2.50
2023-04-27T10:31:34.203Z,2.90
2023-04-27T10:34:12.349Z,2.60
2023-04-27T10:36:42.150Z,3.00
2023-04-27T10:39:32.676Z,2.50
2023-04-27T10:42:07.840Z,2.40
2023-04-27T10:44:36.798Z,2.10
2023-04-27T10:47:14.997Z,2.20
2023-04-27T10:49:42.683Z,2.50
2023-04-27T10:52:09.504Z,2.20
2023-04-27T10:54:37.572Z,3.00
2023-04-27T10:57:10.735Z,2.20
2023-04-27T10:59:51.574Z,2.80
2023-04-27T11:02:27.210Z,2.30
2023-04-27T11:04:56.321Z,2.30
2023-04-27T11:07:27.414Z,2.50
2023-04-27T11:09:54.609Z,2.10
2023-04-27T11:12:21.715Z,2.00
2023-04-27T11:14:48.538Z,2.10
2023-04-27T11:17:15.883Z,2.30
2023-04-27T11:19:48.895Z,1.80
2023-04-27T11:22:18.640Z,2.00
2023-04-27T11:24:49.140Z,2.50
2023-04-27T11:27:17.432Z,1.90
2023-04-27T11:29:44.560Z,2.30
2023-04-27T11:32:37.955Z,2.60
2023-04-27T11:37:32.386Z,2.30
2023-04-27T11:39:59.872Z,2.10
2023-04-27T11:42:28.190Z,2.10
2023-04-27T11:45:00.440Z,2.10
2023-04-27T11:47:32.433Z,2.20
2023-04-27T11:50:00.807Z,1.90
2023-04-27T11:52:39.765Z,2.50
2023-04-27T11:55:11.746Z,2.10
2023-04-27T11:57:39.020Z,2.00
2023-04-27T12:00:12.097Z,2.20
2023-04-27T12:02:42.961Z,2.10
2023-04-27T12:05:12.590Z,1.90
2023-04-27T12:07:40.912Z,1.40
2023-04-27T12:10:10.008Z,1.30
2023-04-27T12:12:38.317Z,1.30
2023-04-27T12:15:06.132Z,1.00
2023-04-27T12:17:32.807Z,1.00
2023-04-27T12:19:59.929Z,1.10
2023-04-27T12:22:27.182Z,1.30
2023-04-27T12:24:54.060Z,1.10
2023-04-27T12:27:20.699Z,1.90
2023-04-27T12:29:47.431Z,1.50
2023-04-27T12:32:14.549Z,1.80
2023-04-27T12:34:42.813Z,2.30
2023-04-27T12:37:12.058Z,1.50
2023-04-27T12:39:39.079Z,1.10
2023-04-27T12:42:06.123Z,1.50
2023-04-27T12:44:34.824Z,1.90
2023-04-27T12:47:01.889Z,1.60
2023-04-27T12:49:28.693Z,1.60
2023-04-27T12:51:57.444Z,1.50
2023-04-27T12:54:24.798Z,1.30
2023-04-27T12:56:51.793Z,1.80
2023-04-27T12:59:18.566Z,1.70
2023-04-27T13:01:46.402Z,1.80
2023-04-27T13:04:22.950Z,1.70
2023-04-27T13:06:51.536Z,1.80
2023-04-27T13:09:18.432Z,1.60
2023-04-27T13:11:45.576Z,1.50
2023-04-27T13:14:13.153Z,1.10
2023-04-27T13:16:44.172Z,1.10
2023-04-27T13:19:11.377Z,1.00
2023-04-27T13:21:38.320Z,1.00
2023-04-27T13:24:07.510Z,1.20
2023-04-27T13:26:34.671Z,0.90
2023-04-27T13:29:04.959Z,1.70
2023-04-27T13:31:33.004Z,1.10
2023-04-27T13:34:03.035Z,1.00
2023-04-27T13:36:30.064Z,1.00
2023-04-27T13:38:57.690Z,1.10
2023-04-27T13:41:28.668Z,1.60
2023-04-27T13:43:55.467Z,1.80
2023-04-27T13:46:22.824Z,1.30
2023-04-27T13:48:50.435Z,1.10
2023-04-27T13:52:10.509Z,1.40
2023-04-27T13:54:37.721Z,1.50
2023-04-27T13:57:04.654Z,1.70
2023-04-27T13:59:31.710Z,1.60
2023-04-27T14:01:58.459Z,1.10
2023-04-27T14:04:25.511Z,1.00
2023-04-27T14:06:52.648Z,0.90
2023-04-27T14:09:20.124Z,1.10
2023-04-27T14:11:56.469Z,0.90
2023-04-27T14:14:25.681Z,1.00
2023-04-27T14:16:52.882Z,1.00
2023-04-27T14:19:20.168Z,1.50
2023-04-27T14:21:47.520Z,1.70
2023-04-27T14:24:14.670Z,1.20
2023-04-27T14:26:45.159Z,1.80
2023-04-27T14:29:13.287Z,1.10
2023-04-27T14:31:40.360Z,1.10
2023-04-27T14:34:07.587Z,1.60
2023-04-27T14:36:34.613Z,1.40
2023-04-27T14:39:01.454Z,1.20
2023-04-27T14:41:28.709Z,1.40
2023-04-27T14:43:58.566Z,1.60
2023-04-27T14:46:26.038Z,1.00
2023-04-27T14:48:53.662Z,1.00
2023-04-27T14:51:21.402Z,1.30
2023-04-27T14:53:50.205Z,1.40
2023-04-27T14:56:17.140Z,0.90
2023-04-27T14:58:44.009Z,1.40
2023-04-27T15:01:13.567Z,1.50
2023-04-27T15:03:41.032Z,1.30
2023-04-27T15:06:08.392Z,1.20
2023-04-27T15:08:35.120Z,1.10
2023-04-27T15:11:05.057Z,1.40
2023-04-27T15:13:31.783Z,1.30
2023-04-27T15:16:02.147Z,1.40
2023-04-27T15:18:29.040Z,1.20
2023-04-27T15:20:59.578Z,1.10
2023-04-27T15:23:26.834Z,1.00
2023-04-27T15:25:55.319Z,1.30
2023-04-27T15:28:22.771Z,1.60
2023-04-27T15:30:49.626Z,1.10
2023-04-27T15:33:16.669Z,1.20
2023-04-27T15:35:43.595Z,1.10
2023-04-27T15:38:13.267Z,1.40
2023-04-27T15:40:40.094Z,1.60
2023-04-27T15:43:07.097Z,1.30
2023-04-27T15:45:34.156Z,19.20
2023-04-27T15:48:00.937Z,9.50
2023-04-27T15:50:28.724Z,12.00
2023-04-27T15:52:55.795Z,11.20
2023-04-27T15:58:19.548Z,6.80
2023-04-27T16:00:49.175Z,4.70
2023-04-27T16:03:18.801Z,4.00
2023-04-27T16:06:01.155Z,1.70
2023-04-27T16:08:31.845Z,3.40
2023-04-27T16:11:02.797Z,3.40
2023-04-27T16:13:34.547Z,1.50
2023-04-27T16:16:02.852Z,3.00
2023-04-27T16:18:31.184Z,4.20
2023-04-27T16:21:01.195Z,3.40
2023-04-27T16:23:29.372Z,2.10
2023-04-27T16:25:57.761Z,2.30
2023-04-27T16:28:26.230Z,2.30
2023-04-27T16:30:55.319Z,2.50
2023-04-27T16:33:24.029Z,1.90
2023-04-27T16:35:53.918Z,3.10
2023-04-27T16:38:22.094Z,2.40
2023-04-27T16:40:54.776Z,5.80
2023-04-27T16:43:51.630Z,5.30
2023-04-27T16:46:19.823Z,9.20
2023-04-27T16:48:49.499Z,6.70
2023-04-27T16:51:18.469Z,4.10
2023-04-27T16:53:46.977Z,4.00
2023-04-27T16:56:15.552Z,3.60
2023-04-27T16:58:45.989Z,2.40
2023-04-27T17:01:14.410Z,2.80
2023-04-27T17:03:43.410Z,3.30
2023-04-27T17:06:31.391Z,4.00
2023-04-27T17:08:59.663Z,4.00
2023-04-27T17:11:27.884Z,3.30
2023-04-27T17:13:56.672Z,3.50
2023-04-27T17:16:27.587Z,2.50
2023-04-27T17:18:57.991Z,2.30
2023-04-27T17:21:28.974Z,3.20
2023-04-27T17:23:57.222Z,2.80
2023-04-27T17:26:25.212Z,2.60
2023-04-27T17:28:56.928Z,1.70
2023-04-27T17:31:25.138Z,2.10
2023-04-27T17:36:22.179Z,2.00
2023-04-27T17:38:50.754Z,2.20
2023-04-27T17:41:19.236Z,1.90
2023-04-27T17:43:47.373Z,1.60
2023-04-27T17:46:15.935Z,2.10
2023-04-27T17:48:45.048Z,2.10
2023-04-27T17:51:13.260Z,1.60
2023-04-27T17:53:41.638Z,2.10
2023-04-27T17:56:10.333Z,2.30
2023-04-27T17:58:39.766Z,1.80
2023-04-27T18:01:12.006Z,1.90
2023-04-27T18:03:42.714Z,1.60
2023-04-27T18:06:11.223Z,2.00
2023-04-27T18:08:39.684Z,1.50
2023-04-27T18:11:07.853Z,1.70
2023-04-27T18:13:36.132Z,1.60
2023-04-27T18:16:06.188Z,1.50
2023-04-27T18:18:34.524Z,1.50
2023-04-27T18:21:03.138Z,1.30
2023-04-27T18:23:31.692Z,1.20
2023-04-27T18:26:00.386Z,1.80
2023-04-27T18:28:28.960Z,1.30
2023-04-27T18:30:57.645Z,1.50
2023-04-27T18:33:26.647Z,1.60
2023-04-27T18:35:54.808Z,2.10
2023-04-27T18:38:23.213Z,1.50
2023-04-27T18:40:51.730Z,1.40
2023-04-27T18:43:19.934Z,1.50
2023-04-27T18:45:48.771Z,1.60
2023-04-27T18:48:17.117Z,2.10
2023-04-27T18:50:45.889Z,1.90
2023-04-27T18:53:14.473Z,2.10
2023-04-27T18:55:43.517Z,2.00
2023-04-27T18:58:11.850Z,1.90
2023-04-27T19:00:40.215Z,1.90
2023-04-27T19:03:08.374Z,1.70
2023-04-27T19:05:37.173Z,1.80
2023-04-27T19:08:05.680Z,1.50
2023-04-27T19:10:33.652Z,1.50
2023-04-27T19:13:01.844Z,1.90
2023-04-27T19:15:30.906Z,1.90
2023-04-27T19:18:06.953Z,2.30
2023-04-27T19:20:42.732Z,2.50
2023-04-27T19:23:12.722Z,3.60
2023-04-27T19:25:43.973Z,2.80
2023-04-27T19:28:12.757Z,2.30
2023-04-27T19:30:41.180Z,2.50
2023-04-27T19:33:10.399Z,3.00
2023-04-27T19:35:40.892Z,3.30
2023-04-27T19:38:09.699Z,2.30
2023-04-27T19:40:38.950Z,2.50
2023-04-27T19:43:11.429Z,3.20
2023-04-27T19:45:43.630Z,2.80
2023-04-27T19:48:12.148Z,3.00
2023-04-27T19:50:44.136Z,3.00
2023-04-27T19:53:14.973Z,2.30
2023-04-27T19:55:43.080Z,2.40
2023-04-27T19:58:11.503Z,2.50
2023-04-27T20:00:39.998Z,2.10
2023-04-27T20:03:09.013Z,2.00
2023-04-27T20:05:37.858Z,2.00
2023-04-27T20:08:08.888Z,2.00
2023-04-27T20:10:37.706Z,2.50
2023-04-27T20:13:06.881Z,2.10
2023-04-27T20:15:36.109Z,1.60
2023-04-27T20:18:04.683Z,2.10
2023-04-27T20:20:58.921Z,2.10
2023-04-27T20:23:27.250Z,2.10
2023-04-27T20:25:56.180Z,2.30
2023-04-27T20:28:24.535Z,1.80
2023-04-27T20:30:53.099Z,2.30
2023-04-27T20:33:22.312Z,2.60
2023-04-27T20:35:55.502Z,2.10
2023-04-27T20:38:23.861Z,2.80
2023-04-27T20:41:42.475Z,2.20
2023-04-27T20:44:10.900Z,2.30
2023-04-27T20:46:38.968Z,2.70
2023-04-27T20:49:09.328Z,2.30
2023-04-27T20:51:37.685Z,1.90
2023-04-27T20:54:06.263Z,2.20
2023-04-27T20:56:34.680Z,2.10
2023-04-27T20:59:03.945Z,2.50
2023-04-27T21:01:34.177Z,3.20
2023-04-27T21:04:02.943Z,2.80
2023-04-27T21:06:35.724Z,2.60
2023-04-27T21:09:03.897Z,2.60
2023-04-27T21:11:32.172Z,2.20
2023-04-27T21:14:00.241Z,2.80
2023-04-27T21:16:28.692Z,2.40
2023-04-27T21:18:57.008Z,1.70
2023-04-27T21:21:27.930Z,2.00
2023-04-27T21:24:06.718Z,2.50
2023-04-27T21:26:35.261Z,2.50
2023-04-27T21:29:06.136Z,2.40
2023-04-27T21:31:37.419Z,3.10
2023-04-27T21:34:07.435Z,2.70
2023-04-27T21:36:36.117Z,3.10
2023-04-27T21:39:04.429Z,3.10
2023-04-27T21:41:38.200Z,2.10
2023-04-27T21:44:06.602Z,2.40
2023-04-27T21:46:35.381Z,2.60
2023-04-27T21:53:47.241Z,2.40
2023-04-27T21:56:18.434Z,2.40
2023-04-27T21:58:46.811Z,2.30
2023-04-27T22:01:15.143Z,2.60
2023-04-27T22:03:43.811Z,2.70
2023-04-27T22:07:27.541Z,2.60
2023-04-27T22:09:55.703Z,2.70
2023-04-27T22:12:23.973Z,2.20
2023-04-27T22:14:52.238Z,2.40
2023-04-27T22:17:20.410Z,2.80
2023-04-27T22:20:14.507Z,2.50
2023-04-27T22:22:42.831Z,2.80
2023-04-27T22:25:12.680Z,2.90
2023-04-27T22:27:45.105Z,2.40
2023-04-27T22:30:15.689Z,1.90
2023-04-27T22:33:03.665Z,2.00
2023-04-27T22:35:33.761Z,2.20
2023-04-27T22:38:02.064Z,1.60
2023-04-27T22:40:30.702Z,1.90
2023-04-27T22:42:58.777Z,1.60
2023-04-27T22:45:27.053Z,1.90
2023-04-27T22:47:55.290Z,1.70
2023-04-27T22:50:23.605Z,1.80
2023-04-27T22:52:56.647Z,1.70
2023-04-27T22:55:24.775Z,1.60
2023-04-27T22:57:54.079Z,1.50
2023-04-27T23:02:50.808Z,1.60
2023-04-27T23:05:18.949Z,1.30
2023-04-27T23:08:13.696Z,1.80
2023-04-27T23:10:41.780Z,1.60
2023-04-27T23:13:13.810Z,1.60
2023-04-27T23:15:41.891Z,2.50
2023-04-27T23:18:10.279Z,1.90
2023-04-27T23:20:38.456Z,2.00
2023-04-27T23:23:06.991Z,2.00
2023-04-27T23:25:35.090Z,1.80
2023-04-27T23:28:03.939Z,2.20
2023-04-27T23:30:33.996Z,2.00
2023-04-27T23:33:02.324Z,1.90
2023-04-27T23:35:32.193Z,1.90
2023-04-27T23:38:00.349Z,1.80
2023-04-27T23:40:28.594Z,2.10
2023-04-27T23:45:25.930Z,1.90
2023-04-27T23:47:59.414Z,1.70
2023-04-27T23:50:46.084Z,1.90
2023-04-27T23:53:14.690Z,1.80
2023-04-27T23:55:43.910Z,1.70
